Kerrick, Minnesota
Current Conditions -  °F | °C
As of 11:13 AM on Wednesday 26 Nov 2014 (Local Time) from KMZH Reporting Station
Overcast Overcast  
Wind Chill: 13°   Ceiling: 2000
Heat Index: 23°   Visibility: 10mi
Dew Point: 14°   Wind: 9mph
Humidity: 68%   Direction: 10°N
Pressure: 30.18"   Gusts: NA
Location:  46.34°N, 92.59°W
Report Text: KMZH 261713Z AUTO 01008KT 10SM BKN020 OVC032 M05/M10 A3018 RMK AO2
Loading
Personal Weather Stations






























Interactive Weather Map New forecast layout! Learn more

10-Day Weather Forecast

Advertisements
Track Severe Weather on mobile